Stations météo

Publicité
Bramham, Grande-Bretagne (99077): Température de l'air & dewpoint: 18.01.2021 06:00:00 - 24.01.2021 06:00:00 (GMT)Bramham, Grande-Bretagne (99077): Vitesse du vent & gusts: 18.01.2021 06:00:00 - 24.01.2021 06:00:00 (GMT)Bramham, Grande-Bretagne (99077): Direction du vent: 18.01.2021 06:00:00 - 24.01.2021 06:00:00 (GMT)Bramham, Grande-Bretagne (99077): Quantités de précipitations: 18.01.2021 06:00:00 - 24.01.2021 06:00:00 (GMT)
Date & Time tt [°C] td [°C] ff [km/h] ff [knt] fx [km/h] fx [knt] dd rr [mm]
24.01.2021 06:00:00 -2,8 -3,4 8 4 - - S 0,0
24.01.2021 05:00:00 -2,1 -3,0 2 1 - - E 0,0
24.01.2021 04:00:00 -1,9 -2,9 9 5 - - SW 0,0
24.01.2021 03:00:00 -2,1 -2,8 8 4 - - S 0,0
24.01.2021 02:00:00 -1,3 -2,6 8 4 - - WSW 0,0
24.01.2021 01:00:00 -0,9 -2,3 9 5 - - W 0,0
24.01.2021 00:00:00 -1,5 -2,6 8 4 - - WSW 0,0
23.01.2021 23:00:00 -1,3 -2,4 9 5 - - W 0,0
23.01.2021 22:00:00 -0,8 -2,0 13 7 - - W 0,0
23.01.2021 21:00:00 -0,6 -1,8 13 7 - - WSW 0,0
23.01.2021 20:00:00 -0,7 -2,0 11 6 - - W 0,0
23.01.2021 19:00:00 -0,2 -1,9 11 6 - - WSW 0,0
23.01.2021 18:00:00 -0,1 -1,7 9 5 - - W 0,0
23.01.2021 17:00:00 0,0 -1,8 8 4 - - W 0,0
23.01.2021 16:00:00 1,5 -1,2 21 11 - - W 0,0
23.01.2021 15:00:00 2,4 -0,5 16 9 - - W 0,0
23.01.2021 14:00:00 2,0 0,1 16 9 - - W 0,0
23.01.2021 13:00:00 1,7 -0,1 9 5 - - W 0,0
23.01.2021 12:00:00 2,0 0,5 11 6 - - W 0,2
23.01.2021 11:00:00 1,2 0,0 13 7 - - WSW 0,0
23.01.2021 10:00:00 0,9 -0,1 11 6 - - W 0,0
23.01.2021 09:00:00 -0,2 -0,7 8 4 - - W 0,0
23.01.2021 08:00:00 -0,8 -1,5 8 4 - - W 0,0
23.01.2021 07:00:00 -0,4 -1,0 11 6 - - W 0,0
23.01.2021 06:00:00 -0,8 -1,2 5 3 - - SW 0,0
23.01.2021 05:00:00 -0,7 -1,2 4 2 - - SW 0,0
23.01.2021 04:00:00 -0,3 -1,0 4 2 - - W 0,0
23.01.2021 03:00:00 0,4 -0,4 9 5 - - WSW 0,0
23.01.2021 02:00:00 0,4 -0,4 11 6 - - WSW 0,0
23.01.2021 01:00:00 0,5 -0,2 11 6 - - SW 0,0
23.01.2021 00:00:00 1,2 0,2 11 6 - - WSW 0,0
22.01.2021 23:00:00 1,0 0,1 11 6 - - SW 0,0
22.01.2021 22:00:00 0,5 -0,5 11 6 - - SW 0,0
22.01.2021 21:00:00 0,8 -0,4 13 7 - - SSW 0,0
22.01.2021 20:00:00 1,3 -0,2 13 7 - - SW 0,0
22.01.2021 19:00:00 1,7 0,0 9 5 - - S 0,0
22.01.2021 18:00:00 3,5 0,8 5 3 - - WSW 0,0
22.01.2021 17:00:00 3,6 0,5 5 3 - - W 0,0
22.01.2021 16:00:00 4,4 0,2 15 8 - - WSW 0,0
22.01.2021 15:00:00 5,9 0,4 16 9 - - WSW 0,0
22.01.2021 14:00:00 6,3 1,0 11 6 - - W 0,0
22.01.2021 13:00:00 6,1 0,6 22 12 - - W 0,0
22.01.2021 12:00:00 6,0 0,1 18 10 - - WSW 0,0
22.01.2021 11:00:00 5,1 0,4 21 11 - - WSW 0,0
22.01.2021 10:00:00 4,2 0,0 21 11 - - W 0,0
22.01.2021 09:00:00 3,3 -0,4 16 9 - - W 0,0
22.01.2021 08:00:00 3,0 -0,8 13 7 - - WNW 0,0
22.01.2021 07:00:00 3,4 -0,3 22 12 - - W 0,0
22.01.2021 06:00:00 3,2 -0,2 21 11 - - W 0,0
22.01.2021 05:00:00 3,1 -0,2 18 10 - - WSW 0,0
22.01.2021 04:00:00 3,3 0,3 15 8 - - W 0,0
22.01.2021 03:00:00 3,4 0,5 26 14 - - WSW 0,0
22.01.2021 02:00:00 3,2 0,8 26 14 55 30 W 0,0
22.01.2021 01:00:00 3,6 0,1 24 13 48 26 W 0,0
22.01.2021 00:00:00 3,8 0,4 34 18 48 26 W 0,0
21.01.2021 23:00:00 3,9 0,5 29 16 - - W 0,0
21.01.2021 22:00:00 3,6 0,5 24 13 - - W 0,0
21.01.2021 21:00:00 3,7 0,3 22 12 - - WSW 0,0
21.01.2021 20:00:00 4,1 0,5 18 10 - - WSW 0,0
21.01.2021 19:00:00 4,4 1,3 24 13 - - WSW 0,0
21.01.2021 18:00:00 4,4 1,3 22 12 - - WSW 0,0
21.01.2021 17:00:00 4,7 1,1 26 14 - - WSW 0,0
21.01.2021 16:00:00 5,0 1,8 24 13 46 25 WSW 0,0
21.01.2021 15:00:00 5,1 2,3 28 15 54 29 WSW 0,0
21.01.2021 14:00:00 4,2 1,9 35 19 59 32 WSW 0,4
21.01.2021 13:00:00 4,2 2,8 31 17 55 30 WSW 0,6
21.01.2021 12:00:00 3,8 2,5 37 20 54 29 SW 0,8
21.01.2021 11:00:00 2,8 1,8 35 19 65 35 SW 2,0
21.01.2021 10:00:00 3,2 1,3 44 24 74 40 SW 0,8
21.01.2021 09:00:00 3,4 0,9 41 22 63 34 SW 0,0
21.01.2021 08:00:00 3,2 0,7 41 22 59 32 SW 0,2
21.01.2021 07:00:00 3,5 0,8 31 17 48 26 SW 0,0
21.01.2021 06:00:00 3,2 1,0 24 13 61 33 WSW 0,8
21.01.2021 05:00:00 3,8 0,8 34 18 54 29 WSW 0,0
21.01.2021 04:00:00 2,5 1,2 31 17 57 31 WSW 0,4
21.01.2021 03:00:00 3,2 0,4 28 15 46 25 W 0,0
21.01.2021 02:00:00 2,3 1,1 28 15 52 28 W 0,6
21.01.2021 01:00:00 1,5 1,0 26 14 - - W 1,8
21.01.2021 00:00:00 0,6 0,2 24 13 - - W 2,0
20.01.2021 23:00:00 3,0 2,3 26 14 - - W 3,0
20.01.2021 22:00:00 5,3 4,9 15 8 - - NW 2,2
20.01.2021 21:00:00 7,0 6,4 16 9 - - WNW 0,8
20.01.2021 20:00:00 9,6 8,9 28 15 - - SSE 1,4
20.01.2021 19:00:00 10,4 8,6 28 15 - - S 0,0
20.01.2021 18:00:00 10,1 9,0 24 13 - - SSE 0,2
20.01.2021 17:00:00 10,1 9,1 26 14 - - S 1,2
20.01.2021 16:00:00 10,3 9,2 28 15 - - S 0,4
20.01.2021 15:00:00 10,6 9,1 31 17 - - S 0,8
20.01.2021 14:00:00 10,6 9,7 29 16 - - S 1,6
20.01.2021 13:00:00 10,5 9,9 18 10 - - SSE 2,4
20.01.2021 12:00:00 10,4 9,8 21 11 - - S 1,6
20.01.2021 11:00:00 10,3 9,3 22 12 - - S 1,2
20.01.2021 10:00:00 10,5 9,0 26 14 - - S 0,4
20.01.2021 09:00:00 10,4 9,4 26 14 - - S 0,4
20.01.2021 08:00:00 10,7 9,0 24 13 - - S 0,2
20.01.2021 07:00:00 10,2 8,9 22 12 - - S 0,0
20.01.2021 06:00:00 10,2 8,7 16 9 - - S 0,0
20.01.2021 05:00:00 10,1 8,8 24 13 - - S 0,2
20.01.2021 04:00:00 10,3 8,8 29 16 - - SSW 0,4
20.01.2021 03:00:00 10,2 8,5 26 14 - - SSW 0,4
20.01.2021 02:00:00 10,8 9,4 31 17 52 28 SSW 0,4
20.01.2021 01:00:00 10,8 9,2 31 17 48 26 SSW 0,4
20.01.2021 00:00:00 10,6 9,3 34 18 50 27 SSW 1,0
19.01.2021 23:00:00 10,6 8,8 35 19 54 29 SSW 0,0
19.01.2021 22:00:00 10,1 8,6 34 18 48 26 S 0,2
19.01.2021 21:00:00 9,7 8,7 22 12 - - S 0,8
19.01.2021 20:00:00 10,6 8,1 28 15 50 27 SSW 0,0
19.01.2021 19:00:00 10,4 8,2 29 16 - - SSW 0,0
19.01.2021 18:00:00 10,0 8,0 24 13 - - S 0,0
19.01.2021 17:00:00 8,7 8,2 21 11 - - SSE 0,8
19.01.2021 16:00:00 9,1 8,0 18 10 - - S 0,8
19.01.2021 15:00:00 9,4 7,8 21 11 - - SSW 0,0
19.01.2021 14:00:00 10,2 7,5 26 14 - - SW 0,2
19.01.2021 13:00:00 10,0 8,2 21 11 - - SW 0,0
19.01.2021 12:00:00 7,7 7,4 11 6 - - S 1,0
19.01.2021 11:00:00 7,8 7,4 16 9 - - SSW 0,4
19.01.2021 10:00:00 7,6 7,2 11 6 - - SSW 1,4
19.01.2021 09:00:00 7,6 7,0 15 8 - - SW 0,6
19.01.2021 08:00:00 7,8 6,9 15 8 - - SW 0,4
19.01.2021 07:00:00 8,1 7,0 11 6 - - SW 0,0
19.01.2021 06:00:00 7,0 6,8 5 3 - - SSW 0,0
19.01.2021 05:00:00 6,8 6,6 5 3 - - SW 0,0
19.01.2021 04:00:00 6,7 6,5 9 5 - - SSW 0,0
19.01.2021 03:00:00 6,6 6,4 9 5 - - S 0,4
19.01.2021 02:00:00 6,7 6,3 13 7 - - S 0,6
19.01.2021 01:00:00 6,8 6,0 16 9 - - S 0,2
19.01.2021 00:00:00 7,0 6,1 22 12 - - S 0,0
18.01.2021 23:00:00 6,9 6,0 28 15 - - S 0,0
18.01.2021 22:00:00 6,3 5,4 21 11 - - SSW 0,2
18.01.2021 21:00:00 5,6 4,7 22 12 - - S 0,0
18.01.2021 20:00:00 4,8 3,5 13 7 - - SSE 0,0
18.01.2021 19:00:00 4,8 3,0 18 10 - - S 0,0
18.01.2021 18:00:00 4,5 3,0 13 7 - - SSW 0,0
18.01.2021 17:00:00 4,9 2,8 21 11 - - SSW 0,0
18.01.2021 16:00:00 5,8 2,6 18 10 - - SW 0,0
18.01.2021 15:00:00 6,3 2,2 15 8 - - WSW 0,0
18.01.2021 14:00:00 6,2 2,6 24 13 - - WSW 0,0
18.01.2021 13:00:00 6,0 3,1 22 12 - - SW 0,0
18.01.2021 12:00:00 5,7 3,4 21 11 - - SSW 0,0
18.01.2021 11:00:00 5,6 3,7 11 6 - - SSW 0,0
18.01.2021 10:00:00 5,8 3,5 15 8 - - SW 0,0
18.01.2021 09:00:00 5,5 3,3 9 5 - - SW 0,0
18.01.2021 08:00:00 5,6 2,9 13 7 - - WSW 0,0
18.01.2021 07:00:00 5,3 2,6 24 13 - - WSW 0,0
18.01.2021 06:00:00 5,3 3,0 21 11 - - WSW 0,0

tt = Température de l'air
td = dewpoint
ff = Vitesse du vent
fx = gusts
dd = Direction du vent
rr = Quantités de précipitations

stations d'obs. à proximité